sensor_id;sensor_type;location;lat;lon;timestamp;pressure;altitude;pressure_sealevel;temperature;humidity
35989;BME280;22064;42.672;23.282;2023-02-14T00:00:18;96065.00;;;1.60;100.00
35989;BME280;22064;42.672;23.282;2023-02-14T00:02:47;96071.44;;;1.64;100.00
35989;BME280;22064;42.672;23.282;2023-02-14T00:05:13;96063.09;;;1.62;100.00
35989;BME280;22064;42.672;23.282;2023-02-14T00:07:39;96056.66;;;1.58;100.00
35989;BME280;22064;42.672;23.282;2023-02-14T00:10:05;96066.50;;;1.71;100.00
35989;BME280;22064;42.672;23.282;2023-02-14T00:12:31;96059.41;;;1.65;100.00
35989;BME280;22064;42.672;23.282;2023-02-14T00:14:57;96071.94;;;1.68;100.00
35989;BME280;22064;42.672;23.282;2023-02-14T00:17:41;96074.69;;;1.66;100.00
35989;BME280;22064;42.672;23.282;2023-02-14T00:20:07;96070.03;;;1.70;100.00
35989;BME280;22064;42.672;23.282;2023-02-14T00:22:33;96082.88;;;1.70;100.00
35989;BME280;22064;42.672;23.282;2023-02-14T00:24:59;96081.63;;;1.74;100.00
35989;BME280;22064;42.672;23.282;2023-02-14T00:27:25;96079.84;;;1.74;100.00
35989;BME280;22064;42.672;23.282;2023-02-14T00:29:51;96069.13;;;1.79;100.00
35989;BME280;22064;42.672;23.282;2023-02-14T00:32:19;96082.59;;;1.73;100.00
35989;BME280;22064;42.672;23.282;2023-02-14T00:34:44;96080.50;;;1.76;100.00
35989;BME280;22064;42.672;23.282;2023-02-14T00:37:10;96069.28;;;1.77;100.00
35989;BME280;22064;42.672;23.282;2023-02-14T00:39:37;96064.81;;;1.79;100.00
35989;BME280;22064;42.672;23.282;2023-02-14T00:42:04;96076.84;;;1.79;100.00
35989;BME280;22064;42.672;23.282;2023-02-14T00:44:30;96073.38;;;1.88;100.00
35989;BME280;22064;42.672;23.282;2023-02-14T00:46:56;96073.06;;;1.91;100.00
35989;BME280;22064;42.672;23.282;2023-02-14T00:49:22;96060.47;;;1.80;100.00
35989;BME280;22064;42.672;23.282;2023-02-14T00:51:48;96077.50;;;1.81;100.00
35989;BME280;22064;42.672;23.282;2023-02-14T00:54:13;96060.16;;;1.83;100.00
35989;BME280;22064;42.672;23.282;2023-02-14T00:56:39;96056.97;;;1.81;100.00
35989;BME280;22064;42.672;23.282;2023-02-14T00:59:08;96058.56;;;1.82;100.00
35989;BME280;22064;42.672;23.282;2023-02-14T01:01:34;96047.59;;;1.72;100.00
35989;BME280;22064;42.672;23.282;2023-02-14T01:04:02;96049.03;;;1.74;100.00
35989;BME280;22064;42.672;23.282;2023-02-14T01:06:28;96049.19;;;1.73;100.00
35989;BME280;22064;42.672;23.282;2023-02-14T01:08:56;96042.16;;;1.75;100.00
35989;BME280;22064;42.672;23.282;2023-02-14T01:11:23;96046.75;;;1.71;100.00
35989;BME280;22064;42.672;23.282;2023-02-14T01:13:53;96037.16;;;1.73;100.00
35989;BME280;22064;42.672;23.282;2023-02-14T01:16:23;96044.38;;;1.70;100.00
35989;BME280;22064;42.672;23.282;2023-02-14T01:18:49;96042.34;;;1.81;100.00
35989;BME280;22064;42.672;23.282;2023-02-14T01:23:41;96042.75;;;1.69;100.00
35989;BME280;22064;42.672;23.282;2023-02-14T01:26:08;96032.78;;;1.66;100.00
35989;BME280;22064;42.672;23.282;2023-02-14T01:28:34;96020.28;;;1.71;100.00
35989;BME280;22064;42.672;23.282;2023-02-14T01:31:12;96046.06;;;1.61;100.00
35989;BME280;22064;42.672;23.282;2023-02-14T01:33:40;96030.06;;;1.67;100.00
35989;BME280;22064;42.672;23.282;2023-02-14T01:36:10;96017.09;;;1.69;100.00
35989;BME280;22064;42.672;23.282;2023-02-14T01:38:39;96024.19;;;1.83;100.00
35989;BME280;22064;42.672;23.282;2023-02-14T01:41:05;96009.09;;;1.72;100.00
35989;BME280;22064;42.672;23.282;2023-02-14T01:43:31;96016.19;;;1.86;100.00
35989;BME280;22064;42.672;23.282;2023-02-14T01:45:57;96014.53;;;1.77;100.00
35989;BME280;22064;42.672;23.282;2023-02-14T01:48:23;96010.69;;;1.73;100.00
35989;BME280;22064;42.672;23.282;2023-02-14T01:50:51;96000.06;;;1.68;100.00
35989;BME280;22064;42.672;23.282;2023-02-14T01:53:25;96000.53;;;1.71;100.00
35989;BME280;22064;42.672;23.282;2023-02-14T01:56:00;95998.50;;;1.75;100.00
35989;BME280;22064;42.672;23.282;2023-02-14T01:58:28;95998.63;;;1.73;100.00
35989;BME280;22064;42.672;23.282;2023-02-14T02:00:56;95995.09;;;1.74;100.00
35989;BME280;22064;42.672;23.282;2023-02-14T02:03:34;95984.22;;;1.80;100.00
35989;BME280;22064;42.672;23.282;2023-02-14T02:06:12;95999.63;;;1.80;100.00
35989;BME280;22064;42.672;23.282;2023-02-14T02:09:06;95985.97;;;1.72;100.00
35989;BME280;22064;42.672;23.282;2023-02-14T02:11:29;95997.66;;;1.74;100.00
35989;BME280;22064;42.672;23.282;2023-02-14T02:13:55;95997.03;;;1.72;100.00
35989;BME280;22064;42.672;23.282;2023-02-14T02:36:35;95972.50;;;1.78;100.00
35989;BME280;22064;42.672;23.282;2023-02-14T02:52:55;95952.84;;;1.60;100.00
35989;BME280;22064;42.672;23.282;2023-02-14T02:58:38;95966.66;;;1.59;100.00
35989;BME280;22064;42.672;23.282;2023-02-14T03:01:17;95964.19;;;1.50;100.00
35989;BME280;22064;42.672;23.282;2023-02-14T03:03:47;95957.31;;;1.50;100.00
35989;BME280;22064;42.672;23.282;2023-02-14T03:06:33;95964.50;;;1.47;100.00
35989;BME280;22064;42.672;23.282;2023-02-14T03:14:54;95963.72;;;1.54;100.00
35989;BME280;22064;42.672;23.282;2023-02-14T03:17:57;95965.94;;;1.49;100.00
35989;BME280;22064;42.672;23.282;2023-02-14T03:21:03;95953.75;;;1.51;100.00
35989;BME280;22064;42.672;23.282;2023-02-14T03:29:28;95933.72;;;1.47;100.00
35989;BME280;22064;42.672;23.282;2023-02-14T03:32:10;95925.53;;;1.51;100.00
35989;BME280;22064;42.672;23.282;2023-02-14T03:38:04;95940.25;;;1.41;100.00
35989;BME280;22064;42.672;23.282;2023-02-14T03:40:46;95936.22;;;1.38;100.00
35989;BME280;22064;42.672;23.282;2023-02-14T03:43:19;95933.34;;;1.42;100.00
35989;BME280;22064;42.672;23.282;2023-02-14T03:45:50;95936.88;;;1.41;100.00
35989;BME280;22064;42.672;23.282;2023-02-14T03:48:20;95939.44;;;1.41;100.00
35989;BME280;22064;42.672;23.282;2023-02-14T03:50:49;95942.31;;;1.37;100.00
35989;BME280;22064;42.672;23.282;2023-02-14T03:53:21;95935.56;;;1.36;100.00
35989;BME280;22064;42.672;23.282;2023-02-14T03:56:10;95926.72;;;1.31;100.00
35989;BME280;22064;42.672;23.282;2023-02-14T03:58:39;95917.72;;;1.27;100.00
35989;BME280;22064;42.672;23.282;2023-02-14T04:01:10;95904.75;;;1.36;100.00
35989;BME280;22064;42.672;23.282;2023-02-14T04:03:39;95912.81;;;1.42;100.00
35989;BME280;22064;42.672;23.282;2023-02-14T04:06:07;95912.94;;;1.32;100.00
35989;BME280;22064;42.672;23.282;2023-02-14T04:08:33;95905.25;;;1.40;100.00
35989;BME280;22064;42.672;23.282;2023-02-14T04:11:00;95908.19;;;1.45;100.00
35989;BME280;22064;42.672;23.282;2023-02-14T04:13:27;95916.34;;;1.41;100.00
35989;BME280;22064;42.672;23.282;2023-02-14T04:15:53;95895.81;;;1.41;100.00
35989;BME280;22064;42.672;23.282;2023-02-14T04:18:19;95889.84;;;1.40;100.00
35989;BME280;22064;42.672;23.282;2023-02-14T04:21:04;95912.47;;;1.36;100.00
35989;BME280;22064;42.672;23.282;2023-02-14T04:23:30;95902.19;;;1.36;100.00
35989;BME280;22064;42.672;23.282;2023-02-14T04:25:56;95913.25;;;1.37;100.00
35989;BME280;22064;42.672;23.282;2023-02-14T04:28:22;95896.44;;;1.34;100.00
35989;BME280;22064;42.672;23.282;2023-02-14T04:30:48;95907.19;;;1.38;100.00
35989;BME280;22064;42.672;23.282;2023-02-14T04:33:14;95894.97;;;1.32;100.00
35989;BME280;22064;42.672;23.282;2023-02-14T04:35:40;95904.16;;;1.43;100.00
35989;BME280;22064;42.672;23.282;2023-02-14T04:38:06;95907.50;;;1.43;100.00
35989;BME280;22064;42.672;23.282;2023-02-14T04:40:31;95904.34;;;1.49;100.00
35989;BME280;22064;42.672;23.282;2023-02-14T04:42:57;95909.59;;;1.39;100.00
35989;BME280;22064;42.672;23.282;2023-02-14T04:45:25;95884.84;;;1.30;100.00
35989;BME280;22064;42.672;23.282;2023-02-14T04:47:51;95881.78;;;1.27;100.00
35989;BME280;22064;42.672;23.282;2023-02-14T04:50:17;95885.31;;;1.26;100.00
35989;BME280;22064;42.672;23.282;2023-02-14T04:52:42;95872.63;;;1.24;100.00
35989;BME280;22064;42.672;23.282;2023-02-14T04:55:09;95870.84;;;1.17;100.00
35989;BME280;22064;42.672;23.282;2023-02-14T04:57:35;95886.78;;;1.28;100.00
35989;BME280;22064;42.672;23.282;2023-02-14T05:00:01;95872.94;;;1.21;100.00
35989;BME280;22064;42.672;23.282;2023-02-14T05:02:27;95872.75;;;1.14;100.00
35989;BME280;22064;42.672;23.282;2023-02-14T05:04:53;95885.75;;;1.13;100.00
35989;BME280;22064;42.672;23.282;2023-02-14T05:07:19;95900.53;;;1.19;100.00
35989;BME280;22064;42.672;23.282;2023-02-14T05:09:45;95887.41;;;1.30;100.00
35989;BME280;22064;42.672;23.282;2023-02-14T05:12:10;95890.59;;;1.24;100.00
35989;BME280;22064;42.672;23.282;2023-02-14T05:14:36;95882.41;;;1.21;100.00
35989;BME280;22064;42.672;23.282;2023-02-14T05:17:02;95876.81;;;1.25;100.00
35989;BME280;22064;42.672;23.282;2023-02-14T05:19:28;95893.41;;;1.39;100.00
35989;BME280;22064;42.672;23.282;2023-02-14T05:21:54;95886.97;;;1.35;100.00
35989;BME280;22064;42.672;23.282;2023-02-14T05:24:20;95872.97;;;1.29;100.00
35989;BME280;22064;42.672;23.282;2023-02-14T05:26:45;95887.56;;;1.29;100.00
35989;BME280;22064;42.672;23.282;2023-02-14T05:29:11;95891.41;;;1.25;100.00
35989;BME280;22064;42.672;23.282;2023-02-14T05:31:37;95885.34;;;1.34;100.00
35989;BME280;22064;42.672;23.282;2023-02-14T05:34:03;95889.47;;;1.27;100.00
35989;BME280;22064;42.672;23.282;2023-02-14T05:36:29;95889.03;;;1.31;100.00
35989;BME280;22064;42.672;23.282;2023-02-14T05:38:55;95857.09;;;1.26;100.00
35989;BME280;22064;42.672;23.282;2023-02-14T05:41:21;95877.31;;;1.29;100.00
35989;BME280;22064;42.672;23.282;2023-02-14T05:43:47;95859.31;;;1.21;100.00
35989;BME280;22064;42.672;23.282;2023-02-14T05:46:13;95876.22;;;1.31;100.00
35989;BME280;22064;42.672;23.282;2023-02-14T05:48:39;95876.69;;;1.35;100.00
35989;BME280;22064;42.672;23.282;2023-02-14T05:51:07;95884.22;;;1.36;100.00
35989;BME280;22064;42.672;23.282;2023-02-14T05:53:33;95880.38;;;1.32;100.00
35989;BME280;22064;42.672;23.282;2023-02-14T05:56:00;95864.63;;;1.27;100.00
35989;BME280;22064;42.672;23.282;2023-02-14T05:58:26;95882.03;;;1.42;100.00
35989;BME280;22064;42.672;23.282;2023-02-14T06:00:52;95887.28;;;1.40;100.00
35989;BME280;22064;42.672;23.282;2023-02-14T06:03:17;95876.41;;;1.46;100.00
35989;BME280;22064;42.672;23.282;2023-02-14T06:05:43;95863.75;;;1.45;100.00
35989;BME280;22064;42.672;23.282;2023-02-14T06:08:09;95873.88;;;1.54;100.00
35989;BME280;22064;42.672;23.282;2023-02-14T06:10:35;95862.28;;;1.42;100.00
35989;BME280;22064;42.672;23.282;2023-02-14T06:13:01;95883.50;;;1.52;100.00
35989;BME280;22064;42.672;23.282;2023-02-14T06:15:26;95872.91;;;1.47;100.00
35989;BME280;22064;42.672;23.282;2023-02-14T06:17:54;95900.84;;;1.50;100.00
35989;BME280;22064;42.672;23.282;2023-02-14T06:20:21;95876.63;;;1.53;100.00
35989;BME280;22064;42.672;23.282;2023-02-14T06:22:49;95883.53;;;1.60;100.00
35989;BME280;22064;42.672;23.282;2023-02-14T06:25:15;95890.41;;;1.52;100.00
35989;BME280;22064;42.672;23.282;2023-02-14T06:27:42;95891.41;;;1.67;100.00
35989;BME280;22064;42.672;23.282;2023-02-14T06:30:08;95886.91;;;1.61;100.00
35989;BME280;22064;42.672;23.282;2023-02-14T06:32:34;95893.00;;;1.68;100.00
35989;BME280;22064;42.672;23.282;2023-02-14T06:35:00;95890.66;;;1.75;100.00
35989;BME280;22064;42.672;23.282;2023-02-14T06:37:28;95885.16;;;1.70;100.00
35989;BME280;22064;42.672;23.282;2023-02-14T06:39:53;95873.63;;;1.74;100.00
35989;BME280;22064;42.672;23.282;2023-02-14T06:42:19;95875.88;;;1.77;100.00
35989;BME280;22064;42.672;23.282;2023-02-14T06:44:45;95887.28;;;1.82;100.00
35989;BME280;22064;42.672;23.282;2023-02-14T06:47:11;95892.16;;;1.94;100.00
35989;BME280;22064;42.672;23.282;2023-02-14T06:49:36;95871.09;;;1.90;100.00
35989;BME280;22064;42.672;23.282;2023-02-14T06:52:04;95870.28;;;1.90;100.00
35989;BME280;22064;42.672;23.282;2023-02-14T06:54:30;95877.03;;;1.91;100.00
35989;BME280;22064;42.672;23.282;2023-02-14T06:56:56;95866.94;;;1.97;100.00
35989;BME280;22064;42.672;23.282;2023-02-14T06:59:21;95855.38;;;2.01;100.00
35989;BME280;22064;42.672;23.282;2023-02-14T07:01:47;95867.09;;;2.04;100.00
35989;BME280;22064;42.672;23.282;2023-02-14T07:04:13;95859.88;;;2.07;100.00
35989;BME280;22064;42.672;23.282;2023-02-14T07:06:39;95865.97;;;1.98;100.00
35989;BME280;22064;42.672;23.282;2023-02-14T07:09:05;95861.97;;;2.04;100.00
35989;BME280;22064;42.672;23.282;2023-02-14T07:11:32;95855.84;;;2.05;100.00
35989;BME280;22064;42.672;23.282;2023-02-14T07:13:57;95849.41;;;1.93;100.00
35989;BME280;22064;42.672;23.282;2023-02-14T07:16:23;95848.97;;;1.97;100.00
35989;BME280;22064;42.672;23.282;2023-02-14T07:18:49;95845.59;;;1.97;100.00
35989;BME280;22064;42.672;23.282;2023-02-14T07:21:15;95868.22;;;2.18;100.00
35989;BME280;22064;42.672;23.282;2023-02-14T07:23:41;95865.03;;;2.07;100.00
35989;BME280;22064;42.672;23.282;2023-02-14T07:26:08;95869.50;;;2.05;100.00
35989;BME280;22064;42.672;23.282;2023-02-14T07:28:34;95874.78;;;1.96;100.00
35989;BME280;22064;42.672;23.282;2023-02-14T07:31:00;95867.75;;;1.98;100.00
35989;BME280;22064;42.672;23.282;2023-02-14T07:33:27;95875.94;;;2.01;100.00
35989;BME280;22064;42.672;23.282;2023-02-14T07:35:53;95891.66;;;1.90;100.00
35989;BME280;22064;42.672;23.282;2023-02-14T07:38:18;95865.97;;;1.90;100.00
35989;BME280;22064;42.672;23.282;2023-02-14T07:40:44;95865.16;;;1.98;100.00
35989;BME280;22064;42.672;23.282;2023-02-14T07:43:10;95873.19;;;1.95;100.00
35989;BME280;22064;42.672;23.282;2023-02-14T07:45:36;95867.91;;;1.96;100.00
35989;BME280;22064;42.672;23.282;2023-02-14T07:48:02;95884.38;;;1.77;100.00
35989;BME280;22064;42.672;23.282;2023-02-14T07:50:29;95887.47;;;1.81;100.00
35989;BME280;22064;42.672;23.282;2023-02-14T07:52:55;95888.69;;;1.69;100.00
35989;BME280;22064;42.672;23.282;2023-02-14T07:55:22;95888.69;;;1.69;100.00
35989;BME280;22064;42.672;23.282;2023-02-14T07:57:49;95890.31;;;1.70;100.00
35989;BME280;22064;42.672;23.282;2023-02-14T08:00:16;95879.50;;;1.58;100.00
35989;BME280;22064;42.672;23.282;2023-02-14T08:02:42;95899.41;;;1.56;100.00
35989;BME280;22064;42.672;23.282;2023-02-14T08:05:08;95891.41;;;1.59;100.00
35989;BME280;22064;42.672;23.282;2023-02-14T08:07:34;95887.69;;;1.61;100.00
35989;BME280;22064;42.672;23.282;2023-02-14T08:10:00;95888.53;;;1.62;100.00
35989;BME280;22064;42.672;23.282;2023-02-14T08:12:26;95889.94;;;1.65;100.00
35989;BME280;22064;42.672;23.282;2023-02-14T08:15:10;95885.31;;;1.68;100.00
35989;BME280;22064;42.672;23.282;2023-02-14T08:17:55;95911.47;;;1.64;100.00
35989;BME280;22064;42.672;23.282;2023-02-14T08:20:21;95913.38;;;1.61;100.00
35989;BME280;22064;42.672;23.282;2023-02-14T08:22:47;95902.34;;;1.69;100.00
35989;BME280;22064;42.672;23.282;2023-02-14T08:25:13;95915.66;;;1.73;100.00
35989;BME280;22064;42.672;23.282;2023-02-14T08:27:39;95905.72;;;1.70;100.00
35989;BME280;22064;42.672;23.282;2023-02-14T08:30:05;95915.38;;;1.76;100.00
35989;BME280;22064;42.672;23.282;2023-02-14T08:32:31;95897.84;;;1.71;100.00
35989;BME280;22064;42.672;23.282;2023-02-14T08:34:57;95922.56;;;1.72;100.00
35989;BME280;22064;42.672;23.282;2023-02-14T08:37:23;95889.50;;;1.69;100.00
35989;BME280;22064;42.672;23.282;2023-02-14T08:39:48;95902.03;;;1.80;100.00
35989;BME280;22064;42.672;23.282;2023-02-14T08:42:14;95894.84;;;1.84;100.00
35989;BME280;22064;42.672;23.282;2023-02-14T08:44:40;95890.13;;;1.63;100.00
35989;BME280;22064;42.672;23.282;2023-02-14T08:47:06;95895.38;;;1.53;100.00
35989;BME280;22064;42.672;23.282;2023-02-14T08:49:31;95906.16;;;1.57;100.00
35989;BME280;22064;42.672;23.282;2023-02-14T08:51:57;95923.31;;;1.56;100.00
35989;BME280;22064;42.672;23.282;2023-02-14T08:54:23;95900.66;;;1.52;100.00
35989;BME280;22064;42.672;23.282;2023-02-14T08:56:49;95903.84;;;1.46;100.00
35989;BME280;22064;42.672;23.282;2023-02-14T08:59:14;95880.91;;;1.52;100.00
35989;BME280;22064;42.672;23.282;2023-02-14T09:01:41;95913.31;;;1.45;100.00
35989;BME280;22064;42.672;23.282;2023-02-14T09:04:06;95920.41;;;1.51;100.00
35989;BME280;22064;42.672;23.282;2023-02-14T09:06:32;95902.06;;;1.38;100.00
35989;BME280;22064;42.672;23.282;2023-02-14T09:09:01;95911.59;;;1.54;100.00
35989;BME280;22064;42.672;23.282;2023-02-14T09:11:27;95888.31;;;1.47;100.00
35989;BME280;22064;42.672;23.282;2023-02-14T09:13:53;95877.69;;;1.42;100.00
35989;BME280;22064;42.672;23.282;2023-02-14T09:16:19;95909.88;;;1.63;100.00
35989;BME280;22064;42.672;23.282;2023-02-14T09:18:46;95911.63;;;1.62;100.00
35989;BME280;22064;42.672;23.282;2023-02-14T09:21:15;95880.78;;;1.54;100.00
35989;BME280;22064;42.672;23.282;2023-02-14T09:23:42;95900.53;;;1.61;100.00
35989;BME280;22064;42.672;23.282;2023-02-14T09:26:10;95876.13;;;1.57;100.00
35989;BME280;22064;42.672;23.282;2023-02-14T09:28:36;95879.06;;;1.63;100.00
35989;BME280;22064;42.672;23.282;2023-02-14T09:31:16;95894.16;;;1.74;100.00
35989;BME280;22064;42.672;23.282;2023-02-14T09:33:42;95898.66;;;1.72;100.00
35989;BME280;22064;42.672;23.282;2023-02-14T09:36:09;95891.28;;;1.77;100.00
35989;BME280;22064;42.672;23.282;2023-02-14T09:38:38;95908.72;;;1.65;100.00
35989;BME280;22064;42.672;23.282;2023-02-14T09:41:06;95913.94;;;1.81;100.00
35989;BME280;22064;42.672;23.282;2023-02-14T09:46:25;95885.81;;;1.80;100.00
35989;BME280;22064;42.672;23.282;2023-02-14T09:48:53;95886.00;;;1.78;100.00
35989;BME280;22064;42.672;23.282;2023-02-14T09:51:25;95870.59;;;1.87;100.00
35989;BME280;22064;42.672;23.282;2023-02-14T09:54:02;95920.16;;;1.71;100.00
35989;BME280;22064;42.672;23.282;2023-02-14T09:59:01;95870.59;;;1.87;100.00
35989;BME280;22064;42.672;23.282;2023-02-14T10:01:35;95862.22;;;1.76;100.00
35989;BME280;22064;42.672;23.282;2023-02-14T10:09:51;95856.97;;;2.02;100.00
35989;BME280;22064;42.672;23.282;2023-02-14T10:12:24;95852.81;;;2.01;100.00
35989;BME280;22064;42.672;23.282;2023-02-14T10:14:54;95845.91;;;1.94;100.00
35989;BME280;22064;42.672;23.282;2023-02-14T10:17:35;95892.78;;;1.88;100.00
35989;BME280;22064;42.672;23.282;2023-02-14T10:20:05;95850.25;;;2.01;100.00
35989;BME280;22064;42.672;23.282;2023-02-14T10:22:43;95854.72;;;1.99;100.00
35989;BME280;22064;42.672;23.282;2023-02-14T10:27:40;95851.03;;;1.94;100.00
35989;BME280;22064;42.672;23.282;2023-02-14T10:30:21;95862.78;;;1.96;100.00
35989;BME280;22064;42.672;23.282;2023-02-14T10:32:59;95842.53;;;1.93;100.00
35989;BME280;22064;42.672;23.282;2023-02-14T10:35:50;95871.25;;;1.89;100.00
35989;BME280;22064;42.672;23.282;2023-02-14T10:43:49;95878.97;;;1.89;100.00
35989;BME280;22064;42.672;23.282;2023-02-14T10:46:42;95851.50;;;1.89;100.00
35989;BME280;22064;42.672;23.282;2023-02-14T10:54:34;95879.41;;;1.76;100.00
35989;BME280;22064;42.672;23.282;2023-02-14T10:57:33;95892.69;;;1.71;100.00
35989;BME280;22064;42.672;23.282;2023-02-14T11:00:04;95848.88;;;1.56;100.00
35989;BME280;22064;42.672;23.282;2023-02-14T11:02:37;95829.63;;;1.60;100.00
35989;BME280;22064;42.672;23.282;2023-02-14T11:05:18;95839.09;;;1.68;100.00
35989;BME280;22064;42.672;23.282;2023-02-14T11:07:47;95855.91;;;1.54;100.00
35989;BME280;22064;42.672;23.282;2023-02-14T11:10:14;95849.38;;;1.68;100.00
35989;BME280;22064;42.672;23.282;2023-02-14T11:12:41;95833.47;;;1.65;100.00
35989;BME280;22064;42.672;23.282;2023-02-14T11:15:19;95791.91;;;1.53;100.00
35989;BME280;22064;42.672;23.282;2023-02-14T11:17:47;95818.75;;;1.83;100.00
35989;BME280;22064;42.672;23.282;2023-02-14T11:20:28;95824.69;;;1.75;100.00
35989;BME280;22064;42.672;23.282;2023-02-14T11:22:55;95823.75;;;1.84;100.00
35989;BME280;22064;42.672;23.282;2023-02-14T11:25:24;95833.38;;;1.99;100.00
35989;BME280;22064;42.672;23.282;2023-02-14T11:28:02;95827.41;;;1.82;100.00
35989;BME280;22064;42.672;23.282;2023-02-14T11:30:38;95843.97;;;1.88;100.00
35989;BME280;22064;42.672;23.282;2023-02-14T11:33:42;95814.28;;;1.93;100.00
35989;BME280;22064;42.672;23.282;2023-02-14T11:36:13;95831.59;;;1.91;100.00
35989;BME280;22064;42.672;23.282;2023-02-14T11:38:42;95815.56;;;1.97;100.00
35989;BME280;22064;42.672;23.282;2023-02-14T11:41:12;95813.97;;;1.96;100.00
35989;BME280;22064;42.672;23.282;2023-02-14T11:43:44;95809.28;;;2.08;100.00
35989;BME280;22064;42.672;23.282;2023-02-14T11:49:02;95788.91;;;2.06;100.00
35989;BME280;22064;42.672;23.282;2023-02-14T11:51:36;95790.03;;;2.12;100.00
35989;BME280;22064;42.672;23.282;2023-02-14T11:54:05;95821.81;;;2.11;100.00
35989;BME280;22064;42.672;23.282;2023-02-14T11:56:51;95796.47;;;2.16;100.00
35989;BME280;22064;42.672;23.282;2023-02-14T12:01:47;95788.25;;;2.37;100.00
35989;BME280;22064;42.672;23.282;2023-02-14T12:04:20;95779.09;;;2.35;100.00
35989;BME280;22064;42.672;23.282;2023-02-14T12:06:47;95776.34;;;2.36;100.00
35989;BME280;22064;42.672;23.282;2023-02-14T12:11:55;95791.28;;;2.57;100.00
35989;BME280;22064;42.672;23.282;2023-02-14T12:14:24;95803.69;;;2.21;100.00
35989;BME280;22064;42.672;23.282;2023-02-14T12:17:27;95791.81;;;2.28;100.00
35989;BME280;22064;42.672;23.282;2023-02-14T12:20:08;95777.34;;;2.35;100.00
35989;BME280;22064;42.672;23.282;2023-02-14T12:22:42;95761.44;;;2.23;100.00
35989;BME280;22064;42.672;23.282;2023-02-14T12:27:49;95777.97;;;2.29;100.00
35989;BME280;22064;42.672;23.282;2023-02-14T12:30:20;95774.91;;;2.50;100.00
35989;BME280;22064;42.672;23.282;2023-02-14T12:32:54;95755.19;;;2.34;100.00
35989;BME280;22064;42.672;23.282;2023-02-14T12:52:15;95769.28;;;2.46;100.00
35989;BME280;22064;42.672;23.282;2023-02-14T12:57:39;95766.88;;;2.45;100.00
35989;BME280;22064;42.672;23.282;2023-02-14T13:03:01;95756.06;;;2.58;100.00
35989;BME280;22064;42.672;23.282;2023-02-14T13:06:02;95749.22;;;2.42;100.00
35989;BME280;22064;42.672;23.282;2023-02-14T13:09:01;95763.97;;;2.56;100.00
35989;BME280;22064;42.672;23.282;2023-02-14T13:11:38;95758.03;;;2.47;100.00
35989;BME280;22064;42.672;23.282;2023-02-14T13:14:27;95756.59;;;2.53;100.00
35989;BME280;22064;42.672;23.282;2023-02-14T13:17:02;95741.31;;;2.51;100.00
35989;BME280;22064;42.672;23.282;2023-02-14T13:22:17;95749.47;;;2.63;100.00
35989;BME280;22064;42.672;23.282;2023-02-14T13:24:46;95738.34;;;2.71;100.00
35989;BME280;22064;42.672;23.282;2023-02-14T13:27:19;95739.06;;;2.57;100.00
35989;BME280;22064;42.672;23.282;2023-02-14T13:29:49;95733.91;;;2.48;100.00
35989;BME280;22064;42.672;23.282;2023-02-14T13:32:20;95746.44;;;2.60;100.00
35989;BME280;22064;42.672;23.282;2023-02-14T13:34:49;95747.75;;;2.56;100.00
35989;BME280;22064;42.672;23.282;2023-02-14T13:37:18;95740.66;;;2.58;100.00
35989;BME280;22064;42.672;23.282;2023-02-14T13:39:49;95731.03;;;2.51;100.00
35989;BME280;22064;42.672;23.282;2023-02-14T13:50:53;95729.75;;;2.47;100.00
35989;BME280;22064;42.672;23.282;2023-02-14T13:53:44;95752.56;;;2.59;100.00
35989;BME280;22064;42.672;23.282;2023-02-14T13:58:48;95747.44;;;2.50;100.00
35989;BME280;22064;42.672;23.282;2023-02-14T14:09:53;95741.44;;;2.66;100.00
35989;BME280;22064;42.672;23.282;2023-02-14T14:19:56;95763.31;;;2.46;100.00
35989;BME280;22064;42.672;23.282;2023-02-14T14:22:24;95728.81;;;2.40;100.00
35989;BME280;22064;42.672;23.282;2023-02-14T14:24:55;95751.91;;;2.48;100.00
35989;BME280;22064;42.672;23.282;2023-02-14T14:27:24;95730.28;;;2.35;100.00
35989;BME280;22064;42.672;23.282;2023-02-14T14:30:26;95745.19;;;2.47;100.00
35989;BME280;22064;42.672;23.282;2023-02-14T14:32:53;95737.47;;;2.47;100.00
35989;BME280;22064;42.672;23.282;2023-02-14T14:35:22;95745.19;;;2.47;100.00
35989;BME280;22064;42.672;23.282;2023-02-14T14:37:52;95764.63;;;2.42;100.00
35989;BME280;22064;42.672;23.282;2023-02-14T14:40:33;95721.13;;;2.32;100.00
35989;BME280;22064;42.672;23.282;2023-02-14T14:43:28;95729.94;;;2.38;100.00
35989;BME280;22064;42.672;23.282;2023-02-14T14:45:56;95720.13;;;2.33;100.00
35989;BME280;22064;42.672;23.282;2023-02-14T14:48:27;95732.53;;;2.29;100.00
35989;BME280;22064;42.672;23.282;2023-02-14T14:50:55;95720.59;;;2.45;100.00
35989;BME280;22064;42.672;23.282;2023-02-14T14:53:41;95723.50;;;2.50;100.00
35989;BME280;22064;42.672;23.282;2023-02-14T14:56:19;95708.69;;;2.52;100.00
35989;BME280;22064;42.672;23.282;2023-02-14T14:58:45;95695.72;;;2.37;100.00
35989;BME280;22064;42.672;23.282;2023-02-14T15:01:26;95714.66;;;2.44;100.00
35989;BME280;22064;42.672;23.282;2023-02-14T15:03:52;95735.69;;;2.56;100.00
35989;BME280;22064;42.672;23.282;2023-02-14T15:06:19;95731.81;;;2.52;100.00
35989;BME280;22064;42.672;23.282;2023-02-14T15:08:46;95718.03;;;2.53;100.00
35989;BME280;22064;42.672;23.282;2023-02-14T15:14:02;95728.16;;;2.46;100.00
35989;BME280;22064;42.672;23.282;2023-02-14T15:16:37;95724.94;;;2.36;100.00
35989;BME280;22064;42.672;23.282;2023-02-14T15:19:08;95723.03;;;2.46;100.00
35989;BME280;22064;42.672;23.282;2023-02-14T15:21:35;95733.31;;;2.38;100.00
35989;BME280;22064;42.672;23.282;2023-02-14T15:24:02;95741.03;;;2.46;100.00
35989;BME280;22064;42.672;23.282;2023-02-14T15:26:33;95741.03;;;2.38;100.00
35989;BME280;22064;42.672;23.282;2023-02-14T15:29:03;95736.22;;;2.35;100.00